বাংলা English Search

Maritime Ports have been advised to hoist local cautionary signal no. three (R) three.

TAF

TAF VGHS 080500Z 0806/0912 13008KT 4000 HZ SCT012 BKN100 TEMPO 0806/0812 16020KT 2000 RA/TSRA BKN008 FEW025CB OVC090 BECMG 0822/0824 09005KT 3500 HZ SCT012 BKN100 BECMG 0905/0907 12008KT 4000 HZ SCT015 BKN100=


TAF VGEG 072300Z 0800/0906 15008KT 3500 HZ SCT015 BKN100 TEMPO 0805/0811 25018KT 1800 RA/TSRA SCT008 FEW025CB OVC090 BECMG 0811/0813 26012KT 4500 HZ SCT015 SCT100 BECMG 0820/0822 17010KT 3800 HZ SCT015 SCT100=

 

 

 

TAF VGSY 071000Z 0712/0818 34005KT 4000 HZ SCT015 BKN100 BECMG 0723/0801 06004KT 3000 HZ SCT012 BKN100 BECMG 0803/0805 09005KT 3500 HZ SCT015 BKN100 TEMPO 0716/0806 18020KT 2000 RA/TSRA BKN007 FEW025CB OVC090=